Latest Weather Observations for Nullarbor

IDS60801

Issued at 8:35 pm CST Tuesday 2 September 2014 (issued every 30 minutes, with the page automatically refreshed every 10 minutes)

About weather observations | Map of weather stations | Latest weather observations for SA | Other Formats
Station Details ID: 018106 Name: NULLARBOR Lat: -31.45 Lon: 130.90 Height: 64.0 m
Data from the previous 72 hours. | See also: Recent months at Nullarbor
Date/Time
CST
Temp
°C
App
Temp
°C
Dew
Point
Rel
Hum
%
Delta-T
°C
Wind Press
QNH
hPa
Press
MSL
hPa
Rain
since 9 am
mm
Dir
 
Spd
km/h
Gust
km/h
Spd
kts
Gust
kts
02/08:30pm 12.8 8.0 7.5 70 2.6 ESE 22 30 12 16 1025.4 1025.3 0.0
02/08:00pm 12.8 8.0 7.5 70 2.6 ESE 22 30 12 16 1025.4 1025.3 0.0
02/07:30pm 12.8 7.7 7.5 70 2.6 ESE 24 30 13 16 1025.3 1025.2 0.0
02/07:00pm 12.8 7.9 7.0 68 2.8 ESE 22 30 12 16 1025.5 1025.4 0.0
02/06:30pm 13.1 8.5 6.7 65 3.1 ESE 20 26 11 14 1025.8 1025.7 0.0
02/06:00pm 13.4 7.6 6.3 62 3.4 ESE 26 33 14 18 1025.5 1025.4 0.0
02/05:30pm 13.8 7.9 5.9 59 3.7 ESE 26 33 14 18 1025.1 1025.0 0.0
02/05:00pm 14.5 8.5 5.3 54 4.3 ESE 26 32 14 17 1025.4 1025.3 0.0
02/04:30pm 15.7 9.3 5.3 50 4.9 ESE 28 35 15 19 1025.2 1025.1 0.0
02/04:00pm 16.8 11.5 5.1 46 5.6 ESE 22 28 12 15 1025.4 1025.3 0.0
02/03:30pm 16.8 11.9 5.1 46 5.6 SE 20 30 11 16 1025.4 1025.3 0.0
02/03:00pm 16.7 12.7 4.7 45 5.7 E 15 26 8 14 1025.6 1025.5 0.0
02/02:30pm 16.7 11.7 4.4 44 5.8 E 20 26 11 14 1026.1 1026.0 0.0
02/02:00pm 17.2 12.9 3.5 40 6.4 NE 15 28 8 15 1026.4 1026.3 0.0
02/01:30pm 17.2 12.6 3.8 41 6.2 NE 17 30 9 16 1026.9 1026.8 0.0
02/01:00pm 16.2 12.4 3.9 44 5.7 NE 13 24 7 13 1027.4 1027.3 0.0
02/12:30pm 16.8 13.1 4.5 44 5.8 NNE 13 20 7 11 1028.3 1028.2 0.0
02/12:00pm 15.4 11.5 3.5 45 5.4 E 13 22 7 12 1028.9 1028.8 0.0
02/11:30am 14.8 10.3 4.2 49 4.9 ENE 17 26 9 14 1029.1 1029.0 0.0
02/11:00am 14.3 9.7 3.7 49 4.8 ENE 17 22 9 12 1029.7 1029.7 0.0
02/10:30am 13.9 9.7 3.7 50 4.6 NE 15 19 8 10 1029.8 1029.8 0.0
02/10:00am 13.6 9.9 4.5 54 4.2 ENE 13 20 7 11 1030.0 1030.0 0.0
02/09:30am 13.5 10.3 4.9 56 4.0 E 11 17 6 9 1030.0 1030.0 0.0
02/09:00am 12.9 9.6 4.6 57 3.8 ENE 11 13 6 7 1029.6 1029.6 0.2
02/08:30am 12.2 8.8 5.8 65 3.0 E 13 15 7 8 1029.5 1029.5 0.2
02/08:00am 11.2 9.1 5.7 69 2.6 ESE 6 6 3 3 1029.1 1029.0 0.2
02/07:30am 10.9 8.0 4.6 65 2.8 SSE 9 13 5 7 1029.0 1028.9 0.2
02/07:00am 10.6 7.7 4.5 66 2.7 SSE 9 11 5 6 1028.9 1028.8 0.2
02/06:30am 10.8 7.6 5.1 68 2.6 SSE 11 13 6 7 1028.6 1028.5 0.2
02/06:00am 10.7 7.5 5.3 69 2.5 ESE 11 13 6 7 1028.3 1028.2 0.2
02/05:30am 10.6 8.5 5.6 71 2.3 SE 6 9 3 5 1028.7 1028.6 0.2
02/05:00am 10.7 8.4 5.5 70 2.4 S 7 9 4 5 1028.0 1027.9 0.2
02/04:30am 10.7 7.9 5.0 68 2.6 SSE 9 11 5 6 1027.5 1027.4 0.2
02/04:00am 10.5 7.2 4.6 67 2.7 SE 11 17 6 9 1027.6 1027.5 0.2
02/03:30am 10.5 6.8 4.6 67 2.6 S 13 19 7 10 1027.6 1027.5 0.2
02/03:00am 10.9 7.2 4.6 65 2.8 SSE 13 20 7 11 1027.4 1027.3 0.2
02/02:30am 11.3 7.6 4.5 63 3.1 SSE 13 17 7 9 1028.0 1027.9 0.2
02/02:00am 11.0 8.4 6.0 71 2.3 SSW 9 19 5 10 1028.1 1028.0 0.2
02/01:30am 11.1 8.1 5.8 70 2.4 SSW 11 17 6 9 1028.1 1028.0 0.2
02/01:00am 10.9 7.9 6.1 72 2.2 SSW 11 13 6 7 1028.3 1028.2 0.2
02/12:30am 10.4 7.5 4.8 68 2.5 S 9 15 5 8 1028.2 1028.1 0.2
02/12:00am 9.6 6.3 4.8 72 2.1 SSE 11 13 6 7 1028.0 1027.9 0.2
 
Date/Time
CST
Temp
°C
App
Temp
°C
Dew
Point
Rel
Hum
%
Delta-T
°C
Wind Press
QNH
hPa
Press
MSL
hPa
Rain
since 9 am
mm
Dir
 
Spd
km/h
Gust
km/h
Spd
kts
Gust
kts
01/11:30pm 9.4 6.5 4.6 72 2.1 S 9 11 5 6 1028.3 1028.2 0.2
01/11:00pm 9.2 5.6 4.8 74 2.0 S 13 15 7 8 1028.1 1028.0 0.2
01/10:30pm 10.7 7.3 5.9 72 2.2 S 13 15 7 8 1028.0 1027.9 0.2
01/10:00pm 12.1 8.0 6.2 67 2.8 S 17 22 9 12 1027.6 1027.5 0.2
01/09:30pm 10.9 7.3 5.2 68 2.6 SSW 13 17 7 9 1027.6 1027.5 0.2
01/09:00pm 11.4 6.7 3.2 57 3.6 SSW 17 20 9 11 1027.6 1027.5 0.2
01/08:30pm 12.1 8.5 5.0 62 3.2 SSW 13 22 7 12 1027.2 1027.1 0.2
01/08:00pm 11.5 8.3 4.9 64 3.0 SSW 11 13 6 7 1026.7 1026.6 0.2
01/07:30pm 11.3 7.2 4.5 63 3.1 SSW 15 19 8 10 1026.5 1026.4 0.2
01/07:00pm 11.4 6.7 5.1 65 2.9 SSW 19 24 10 13 1026.2 1026.1 0.2
01/06:30pm 12.3 7.2 5.9 65 3.0 SSW 22 28 12 15 1025.7 1025.6 0.2
01/06:00pm 12.9 7.7 5.6 61 3.4 SSW 22 28 12 15 1025.2 1025.1 0.2
01/05:30pm 13.9 7.7 6.0 59 3.8 SSW 28 35 15 19 1024.7 1024.6 0.2
01/05:00pm 14.1 7.5 6.0 58 3.9 SSW 30 37 16 20 1024.4 1024.3 0.2
01/04:30pm 14.5 8.4 6.6 59 3.8 SSW 28 39 15 21 1024.0 1023.9 0.2
01/04:00pm 14.7 8.3 7.0 60 3.8 SSW 30 39 16 21 1023.7 1023.6 0.2
01/03:30pm 14.5 7.5 6.8 60 3.7 SSW 33 43 18 23 1023.5 1023.4 0.2
01/03:06pm 13.9 7.4 9.1 73 2.4 SSW 33 43 18 23 1023.3 1023.2 0.2
01/03:00pm 13.9 7.7 9.9 77 2.1 SW 33 39 18 21 1023.2 1023.1 0.2
01/02:52pm 13.2 7.2 10.7 85 1.3 SW 33 46 18 25 1023.3 1023.2 0.2
01/02:30pm 16.5 9.7 7.7 56 4.4 SSW 33 43 18 23 1022.9 1022.9 0.0
01/02:00pm 16.6 10.1 9.1 61 3.9 SSW 33 41 18 22 1022.9 1022.9 0.0
01/01:30pm 16.8 10.3 8.8 59 4.1 SW 33 48 18 26 1022.9 1022.9 0.0
01/01:00pm 16.5 9.5 8.5 59 4.1 SW 35 46 19 25 1022.7 1022.7 0.0
01/12:30pm 14.6 8.9 11.0 79 1.9 SSW 32 39 17 21 1022.7 1022.7 0.0
01/12:00pm 16.1 9.8 9.1 63 3.6 SW 32 43 17 23 1022.3 1022.3 0.0
01/11:30am 15.6 9.1 8.1 61 3.8 SW 32 41 17 22 1022.1 1022.1 0.0
01/11:00am 15.6 9.0 7.9 60 3.9 SW 32 43 17 23 1021.8 1021.8 0.0
01/10:30am 15.3 10.0 9.7 69 2.9 SW 28 41 15 22 1021.8 1021.8 0.0
01/10:00am 14.8 9.3 9.2 69 2.9 SW 28 35 15 19 1021.5 1021.5 0.0
01/09:30am 14.3 11.1 11.3 82 1.6 WSW 19 30 10 16 1021.3 1021.3 0.0
01/09:00am 13.5 11.8 12.4 93 0.6 WSW 13 17 7 9 1020.9 1021.0 6.6
01/08:30am 12.8 11.9 12.6 99 0.1 W 9 13 5 7 1020.5 1020.6 6.6
01/08:00am 12.6 11.6 12.4 99 0.1 WSW 9 11 5 6 1019.9 1020.0 6.6
01/07:30am 12.6 11.6 12.4 99 0.1 WSW 9 13 5 7 1019.5 1019.5 6.6
01/07:00am 12.7 11.4 12.5 99 0.1 W 11 15 6 8 1019.3 1019.3 6.6
01/06:30am 12.8 11.1 12.6 99 0.1 W 13 15 7 8 1018.8 1018.8 6.6
01/06:00am 12.8 11.9 12.6 99 0.1 W 9 13 5 7 1018.5 1018.5 6.6
01/05:34am 12.8 11.9 12.6 99 0.1 W 9 13 5 7 1018.1 1018.1 6.6
01/05:30am 12.9 11.7 12.7 99 0.1 W 11 15 6 8 1018.1 1018.1 6.6
01/05:12am 13.1 10.8 12.9 99 0.1 WSW 17 22 9 12 1018.2 1018.2 6.0
01/05:00am 13.3 11.0 13.1 99 0.1 WSW 17 20 9 11 1018.0 1018.0 5.6
01/04:30am 13.5 12.9 13.5 100 0.0 WSW 9 13 5 7 1017.5 1017.5 5.6
01/04:05am 13.5 12.5 13.5 100 0.0 WSW 11 15 6 8 1017.4 1017.4 5.6
01/04:00am 13.5 12.9 13.5 100 0.0 WSW 9 13 5 7 1017.4 1017.4 5.6
01/03:50am 13.4 12.8 13.4 100 0.0 WSW 9 13 5 7 1017.2 1017.2 5.6
01/03:30am 13.4 13.1 13.4 100 0.0 SW 7 9 4 5 1016.8 1016.8 5.4
01/03:00am 13.5 12.9 13.5 100 0.0 SSW 9 13 5 7 1016.5 1016.5 5.4
01/02:59am 13.5 12.9 13.5 100 0.0 SSW 9 13 5 7 1016.5 1016.5 5.4
01/02:39am 13.7 12.4 13.7 100 0.0 SSW 13 15 7 8 1016.7 1016.7 5.0
01/02:30am 13.9 11.9 13.9 100 0.0 SW 17 22 9 12 1016.6 1016.6 4.6
01/02:00am 13.9 12.7 13.9 100 0.0 WSW 13 19 7 10 1016.3 1016.3 4.4
01/01:30am 14.0 13.2 14.0 100 0.0 WSW 11 15 6 8 1016.2 1016.2 4.4
01/01:00am 14.0 13.2 14.0 100 0.0 W 11 15 6 8 1016.2 1016.2 4.4
01/12:58am 14.0 13.2 14.0 100 0.0 W 11 15 6 8 1016.1 1016.1 4.4
01/12:45am 14.0 13.6 14.0 100 0.0 W 9 13 5 7 1016.2 1016.2 4.4
01/12:30am 14.0 13.6 14.0 100 0.0 W 9 11 5 6 1016.3 1016.3 4.4
01/12:00am 14.0 13.6 14.0 100 0.0 W 9 13 5 7 1016.2 1016.2 4.4
 
Date/Time
CST
Temp
°C
App
Temp
°C
Dew
Point
Rel
Hum
%
Delta-T
°C
Wind Press
QNH
hPa
Press
MSL
hPa
Rain
since 9 am
mm
Dir
 
Spd
km/h
Gust
km/h
Spd
kts
Gust
kts
31/11:30pm 14.0 13.2 14.0 100 0.0 SW 11 13 6 7 1015.8 1015.8 4.4
31/11:00pm 14.2 13.8 14.2 100 0.0 S 9 11 5 6 1015.6 1015.6 4.4
31/10:30pm 14.3 14.5 14.3 100 0.0 SW 6 7 3 4 1015.9 1015.9 4.2
31/10:00pm 14.3 14.0 14.3 100 0.0 S 9 11 5 6 1015.5 1015.5 4.2
31/09:30pm 14.3 14.0 14.3 100 0.0 S 9 13 5 7 1015.6 1015.6 4.2
31/09:00pm 14.4 13.7 14.4 100 0.0 S 11 13 6 7 1015.6 1015.6 4.2
31/08:30pm 14.3 14.0 14.3 100 0.0 S 9 13 5 7 1015.3 1015.3 4.2
31/08:00pm 14.3 13.5 14.1 99 0.1 SSE 11 15 6 8 1014.7 1014.7 4.2
31/07:30pm 14.4 13.3 14.2 99 0.1 S 13 17 7 9 1014.3 1014.3 4.2
31/07:04pm 14.6 12.4 14.4 99 0.1 SSE 19 24 10 13 1014.1 1014.1 4.2
31/07:00pm 14.6 12.4 14.4 99 0.1 SSE 19 24 10 13 1014.0 1014.0 4.2
31/06:30pm 15.1 12.9 14.9 99 0.1 S 20 30 11 16 1013.7 1013.7 4.2
31/06:27pm 15.2 13.0 15.0 99 0.1 S 20 30 11 16 1013.7 1013.7 4.2
31/06:14pm 15.4 12.9 15.2 99 0.1 SSE 22 28 12 15 1013.7 1013.7 4.2
31/06:10pm 15.5 13.1 15.3 99 0.1 SSE 22 30 12 16 1013.6 1013.6 4.2
31/06:00pm 15.6 12.4 15.4 99 0.1 S 26 35 14 19 1013.6 1013.6 4.2
31/05:53pm 15.8 12.7 15.6 99 0.1 S 26 33 14 18 1014.1 1014.1 3.4
31/05:51pm 15.8 10.2 15.6 99 0.1 SW 39 59 21 32 1015.4 1015.4 3.4
31/05:44pm 16.9 10.8 14.0 83 1.7 SSW 39 59 21 32 1015.3 1015.3 0.0
31/05:43pm 17.0 11.2 13.9 82 1.8 SSW 37 54 20 29 1015.3 1015.3 0.0
31/05:40pm 17.0 12.1 13.7 81 1.9 SSW 32 41 17 22 1014.3 1014.3 0.0
31/05:30pm 17.3 13.6 12.8 75 2.5 SE 24 30 13 16 1012.1 1012.1 0.0
31/05:00pm 18.4 14.6 12.4 68 3.3 SE 24 32 13 17 1011.8 1011.8 0.0
31/04:30pm 18.7 13.3 12.2 66 3.6 SSE 32 39 17 21 1012.2 1012.2 0.0
31/04:00pm 20.1 15.1 12.1 60 4.5 SSE 30 37 16 20 1012.4 1012.4 0.0
31/03:30pm 20.1 15.2 11.3 57 4.9 SSE 28 35 15 19 1012.2 1012.2 0.0
31/03:00pm 21.5 17.5 11.8 54 5.4 S 24 33 13 18 1012.1 1012.1 0.0
31/02:30pm 23.7 18.0 8.2 37 8.2 S 28 37 15 20 1012.2 1012.2 0.0
31/02:03pm 24.8 18.1 7.4 33 9.2 S 32 39 17 21 1012.1 1012.1 0.0
31/02:00pm 25.9 23.1 7.0 30 10.0 SW 11 20 6 11 1012.3 1012.3 0.0
31/01:30pm 25.4 22.6 7.1 31 9.6 WNW 11 19 6 10 1012.4 1012.4 0.0
31/01:00pm 25.4 23.7 8.4 34 9.2 NNW 7 13 4 7 1012.7 1012.7 0.0
31/12:30pm 24.0 22.4 8.0 36 8.5 SSW 6 15 3 8 1013.2 1013.2 0.0
31/12:00pm 23.7 22.2 8.5 38 8.1 SSE 6 13 3 7 1013.7 1013.7 0.0
31/11:30am 22.6 20.2 8.7 41 7.4 SE 11 19 6 10 1014.0 1014.0 0.0
31/11:00am 21.6 19.0 9.5 46 6.5 ESE 13 19 7 10 1014.2 1014.2 0.0
31/10:30am 20.4 18.1 10.5 53 5.4 ESE 13 17 7 9 1014.4 1014.4 0.0
31/10:00am 19.7 17.5 10.9 57 4.8 SE 13 20 7 11 1014.8 1014.8 0.0
31/09:30am 18.5 15.5 11.8 65 3.7 SSE 19 20 10 11 1014.9 1014.9 0.0
31/09:00am 17.4 14.5 12.3 72 2.8 SSE 19 22 10 12 1014.9 1014.9 0.0
31/08:30am 16.4 14.8 12.8 79 2.0 SSE 13 17 7 9 1014.5 1014.5 0.0
31/08:00am 15.1 12.9 12.1 82 1.6 SE 15 19 8 10 1014.2 1014.2 0.0
31/07:30am 15.0 10.2 13.0 88 1.1 SE 30 44 16 24 1013.7 1013.7 0.0
31/07:26am 14.4 10.4 14.2 99 0.1 SE 28 41 15 22 1013.8 1013.8 0.0
31/07:13am 12.7 11.0 12.5 99 0.1 E 13 17 7 9 1013.5 1013.5 0.0
31/07:00am 12.3 9.7 12.1 99 0.1 SE 17 17 9 9 1013.5 1013.5 0.0
31/06:41am 11.8 9.8 11.6 99 0.1 S 13 15 7 8 1014.2 1014.2 0.0
31/06:30am 12.1 10.2 11.9 99 0.1 S 13 15 7 8 1014.4 1014.4 0.0
31/06:00am 12.4 11.0 12.2 99 0.1 S 11 15 6 8 1014.1 1014.1 0.0
31/05:34am 12.7 10.3 12.5 99 0.1 S 17 19 9 10 1014.3 1014.3 0.0
31/05:30am 12.6 10.1 12.4 99 0.1 S 17 19 9 10 1014.3 1014.3 0.0
31/05:03am 11.9 10.3 11.7 99 0.1 SSE 11 13 6 7 1013.8 1013.8 0.0
31/05:00am 11.9 10.3 11.7 99 0.1 S 11 13 6 7 1013.9 1013.9 0.0
31/04:30am 12.2 10.4 12.0 99 0.1 S 13 17 7 9 1014.1 1014.1 0.0
31/04:00am 12.2 10.0 12.0 99 0.1 S 15 17 8 9 1014.2 1014.2 0.0
31/03:30am 12.2 10.0 12.0 99 0.1 S 15 17 8 9 1013.9 1013.9 0.0
31/03:00am 11.1 8.2 10.9 99 0.1 S 17 17 9 9 1014.1 1014.1 0.0
31/02:30am 11.4 8.8 10.8 96 0.3 S 15 17 8 9 1014.3 1014.3 0.0
31/02:00am 12.0 9.1 11.1 94 0.5 SSE 17 17 9 9 1014.3 1014.3 0.0
31/01:30am 12.9 10.5 11.3 90 0.8 SSE 15 19 8 10 1014.9 1014.9 0.0
31/01:00am 13.6 10.8 11.5 87 1.1 SSE 17 20 9 11 1015.0 1015.0 0.0
31/12:30am 13.1 9.8 11.5 90 0.9 S 20 28 11 15 1015.2 1015.2 0.0
31/12:00am 10.4 6.7 8.0 85 1.2 SSW 17 19 9 10 1015.5 1015.5 0.0
 
Date/Time
CST
Temp
°C
App
Temp
°C
Dew
Point
Rel
Hum
%
Delta-T
°C
Wind Press
QNH
hPa
Press
MSL
hPa
Rain
since 9 am
mm
Dir
 
Spd
km/h
Gust
km/h
Spd
kts
Gust
kts
30/11:30pm 11.5 8.0 7.2 75 2.1 SW 15 17 8 9 1015.7 1015.7 0.0
30/11:00pm 12.3 9.3 5.9 65 3.0 SSW 11 15 6 8 1015.1 1015.1 0.0
30/10:30pm 12.2 8.1 4.2 58 3.6 SW 15 19 8 10 1014.7 1014.7 0.0
30/10:00pm 13.2 8.6 3.8 53 4.3 SW 17 20 9 11 1014.9 1014.9 0.0
30/09:30pm 15.0 10.1 4.1 48 5.0 SW 19 20 10 11 1014.8 1014.8 0.0
30/09:00pm 15.6 13.0 3.4 44 5.6 S 6 9 3 5 1014.4 1014.4 0.0

Other Formats:

Comma delimited format used in spreadsheet applications
http://www.bom.gov.au/fwo/IDS60801/IDS60801.94651.axf

JavaScript Object Notation format (JSON) in row-major order
http://www.bom.gov.au/fwo/IDS60801/IDS60801.94651.json